Aviation Digital Data Service (ADDS)

Output produced by METARs form (2130 UTC 25 February 2018)
found at http://aviationweather.gov/adds/metars/
 
KDUJ 252053Z AUTO 24016KT 10SM CLR 11/M04 A2988 RMK AO2 PK WND 25026/1954 SLP124 T01061039 53018
KDUJ 251953Z AUTO 25016G25KT 10SM CLR 11/M06 A2985 RMK AO2 PK WND 25029/1934 SLP113 T01111056
KDUJ 251853Z AUTO 26021G29KT 10SM CLR 12/M04 A2985 RMK AO2 PK WND 26030/1842 SLP111 T01171039
KDUJ 251753Z AUTO 25014KT 10SM CLR 12/02 A2983 RMK AO2 SLP103 60005 T01170017 10117 20078 50011
KDUJ 251653Z AUTO 26014G24KT 10SM OVC047 11/03 A2984 RMK AO2 PK WND 25033/1609 RAE13 SLP109 P0001 T01110028
KDUJ 251616Z AUTO 25019G33KT 10SM SCT007 SCT020 OVC039 11/06 A2983 RMK AO2 PK WND 25033/1609 RAE13 P0001 T01110061
KDUJ 251553Z AUTO 20005KT 4SM -RA BR OVC007 10/08 A2981 RMK AO2 RAB23 CIG 005V010 SLP101 P0004 T01000083
KDUJ 251546Z AUTO 19004KT 3SM -RA BR OVC007 10/08 A2982 RMK AO2 RAB23 CIG 005V010 P0004 T01000083
KDUJ 251539Z AUTO 20005KT 2SM -RA BR BKN006 OVC012 10/08 A2981 RMK AO2 RAB23 CIG 005V011 P0004 T01000083
KDUJ 251530Z AUTO VRB04KT 3/4SM -RA BR SCT006 BKN012 OVC018 10/08 A2980 RMK AO2 RAB23 P0003 T01000083
KDUJ 251527Z AUTO VRB05KT 1SM -RA BR BKN008 BKN012 OVC020 10/08 A2980 RMK AO2 RAB23 CIG 006V010 P0002 T01000083
KDUJ 251523Z AUTO VRB05KT 2 1/2SM -RA BR BKN012 BKN018 OVC027 10/08 A2981 RMK AO2 RAB23 P0000 T01000083
KDUJ 251453Z AUTO 17007KT 10SM SCT016 BKN026 OVC046 09/08 A2979 RMK AO2 SLP093 T00940078 51006
KDUJ 251437Z AUTO 18007KT 140V210 10SM FEW016 BKN034 OVC050 09/07 A2980 RMK AO2 T00940072
KDUJ 251353Z AUTO 17009G14KT 10SM FEW015 BKN025 OVC042 08/07 A2979 RMK AO2 SLP094 T00830067
KDUJ 251336Z AUTO 17009KT 10SM BKN027 BKN032 OVC042 08/07 A2979 RMK AO2 T00830067
KDUJ 251309Z AUTO 17007G15KT 140V200 10SM SCT007 SCT011 BKN043 08/06 A2978 RMK AO2 T00830061
KDUJ 251253Z AUTO VRB06G15KT 10SM BKN007 BKN120 08/06 A2978 RMK AO2 CIG 005V011 SLP089 T00780061
KDUJ 251240Z AUTO 15009G17KT 10SM SCT008 BKN110 08/06 A2977 RMK AO2 PRESRR T00830061
KDUJ 251153Z AUTO 14011G18KT 10SM BKN008 BKN070 OVC080 08/06 A2975 RMK AO2 RAE49 SLP080 P0006 60044 70093 T00780061 10078 20056 56015
KDUJ 251123Z AUTO 15008G20KT 6SM -RA BR SCT009 BKN050 OVC070 07/06 A2978 RMK AO2 P0003 T00720056
KDUJ 251116Z AUTO 14015G20KT 5SM -RA BR BKN009 OVC070 07/06 A2976 RMK AO2 P0002 T00720056
KDUJ 251109Z AUTO 15009G20KT 6SM -RA BR SCT009 BKN028 OVC075 07/06 A2977 RMK AO2 P0001 T00720056
KDUJ 251100Z AUTO 15011G17KT 8SM -RA BKN011 BKN028 OVC060 07/06 A2977 RMK AO2 P0000 T00720056
KDUJ 251053Z AUTO 16007G19KT 130V190 8SM -RA SCT011 BKN029 OVC065 07/06 A2977 RMK AO2 RAE14B43 SLP087 P0003 T00720056
KDUJ 251005Z AUTO 14015G22KT 7SM -RA BKN008 BKN034 OVC042 06/05 A2977 RMK AO2 CIG 005V010 P0002 T00610050
KDUJ 250953Z AUTO 13013G20KT 5SM -RA BR SCT008 BKN011 OVC040 06/04 A2976 RMK AO2 SLP085 P0007 T00610044
KDUJ 250853Z AUTO 14016G26KT 4SM -RA BR BKN007 BKN013 OVC043 06/04 A2980 RMK AO2 PK WND 13026/0850 SLP098 P0012 60028 T00560044 58027
KDUJ 250838Z AUTO 13014G22KT 6SM -RA BR SCT005 BKN009 OVC017 06/04 A2981 RMK AO2 P0010 T00560044
KDUJ 250825Z AUTO 13014G22KT 3SM -RA BR SCT005 BKN012 OVC027 06/04 A2983 RMK AO2 P0009 T00560044
KDUJ 250815Z AUTO 13013G20KT 2 1/2SM -RA BR BKN006 BKN019 OVC031 06/04 A2984 RMK AO2 P0006 T00560044
KDUJ 250807Z AUTO 13012G20KT 4SM -RA BR SCT006 BKN019 OVC031 06/04 A2984 RMK AO2 P0003 T00560044
KDUJ 250753Z AUTO 18011G27KT 4SM -RA BR BKN006 BKN022 OVC033 06/04 A2987 RMK AO2 PK WND 12030/0730 RAB0658 SLP122 P0016 T00560044
KDUJ 250746Z AUTO 13019G26KT 3SM -RA BR BKN006 BKN024 OVC033 06/04 A2986 RMK AO2 PK WND 12030/0730 RAB0658 P0015 T00560044
KDUJ 250735Z AUTO 14016G30KT 1 3/4SM RA BR BKN005 OVC033 06/04 A2986 RMK AO2 PK WND 12030/0730 RAB0658 P0011 T00560044
KDUJ 250728Z AUTO 14013G23KT 3SM -RA BR OVC005 06/04 A2987 RMK AO2 PK WND 12027/0654 RAB0658 CIG 004V011 P0006 T00560044
KDUJ 250653Z AUTO 14018G24KT 10SM OVC004 06/04 A2988 RMK AO2 SLP126 T00560044
KDUJ 250651Z AUTO 13013G22KT 10SM OVC004 06/04 A2988 RMK AO2
KDUJ 250624Z AUTO 13013G25KT 10SM OVC005 06/04 A2991 RMK AO2 T00560039
KDUJ 250553Z AUTO 13011G24KT 10SM OVC004 06/04 A2993 RMK AO2 RAE41 SLP143 P0002 60012 T00560039 10056 20050 58024
KDUJ 250538Z AUTO 11012G21KT 9SM -RA OVC004 05/04 A2992 RMK AO2 PRESFR P0002 T00500039
KDUJ 250453Z AUTO 13010G18KT 5SM -RA BR OVC006 05/04 A2998 RMK AO2 CIG 004V009 SLP161 P0008 T00500039 401060050
KDUJ 250353Z AUTO 12009KT 5SM -RA BR OVC006 05/04 A3000 RMK AO2 RAB28 SLP169 P0002 T00500039
KDUJ 250253Z AUTO 13014G22KT 10SM OVC007 06/03 A3000 RMK AO2 CIG 006V011 SLP169 T00560033 58026
KDUJ 250233Z AUTO 12015G22KT 10SM OVC008 06/03 A3002 RMK AO2 CIG 006V011 T00560033
KDUJ 250216Z AUTO 12011KT 10SM BKN010 BKN023 OVC038 06/03 A3004 RMK AO2 CIG 007V012 T00560033
KDUJ 250203Z AUTO 13012KT 10SM SCT011 BKN024 OVC040 06/03 A3005 RMK AO2 T00560033
KDUJ 250153Z AUTO 13012KT 10SM SCT011 OVC042 06/03 A3005 RMK AO2 SLP186 T00560033
KDUJ 250138Z AUTO 12011KT 10SM FEW009 OVC043 06/03 A3004 RMK AO2 T00560033
KDUJ 250053Z AUTO 13009KT 10SM OVC045 06/03 A3006 RMK AO2 SLP189 T00560033
KDUJ 242353Z AUTO 12008KT 10SM OVC060 06/03 A3009 RMK AO2 SLP197 60014 T00560033 10061 20056 51007
KDUJ 242319Z AUTO 11007KT 10SM SCT009 OVC070 06/04 A3010 RMK AO2 T00560039
KDUJ 242305Z AUTO 10007KT 10SM SCT010 BKN070 06/04 A3008 RMK AO2 T00560039
KDUJ 242253Z AUTO 11006KT 10SM SCT009 BKN029 BKN075 06/04 A3008 RMK AO2 SLP195 T00560039
KDUJ 242245Z AUTO 11006KT 10SM SCT009 BKN013 BKN029 06/04 A3008 RMK AO2 T00610039
KDUJ 242153Z AUTO 10006KT 10SM BKN006 OVC031 06/04 A3006 RMK AO2 SLP188 T00610044
KDUJ 242145Z AUTO 08005KT 10SM BKN007 BKN120 06/04 A3007 RMK AO2 PRESRR T00610044
KDUJ 242053Z AUTO 11007KT 10SM SCT006 BKN044 OVC100 06/04 A3007 RMK AO2 RAB1957E35 SLP190 P0004 60014 T00610044 58021
KDUJ 242027Z AUTO 09008KT 4SM -RA BR SCT005 BKN065 OVC090 06/04 A3007 RMK AO2 RAB1957 P0003 T00610044
KDUJ 242015Z AUTO 08004KT 2 1/2SM -RA BR SCT005 BKN050 OVC075 06/04 A3009 RMK AO2 RAB1957 P0003 T00610044
KDUJ 241953Z AUTO 10003KT 4SM BR SCT005 BKN039 OVC075 06/04 A3011 RMK AO2 RAE50 SLP202 P0002 T00610044
KDUJ 241929Z AUTO 06003KT 6SM -RA BR FEW005 SCT013 OVC045 06/04 A3012 RMK AO2 P0001 T00610044
KDUJ 241853Z AUTO 05003KT 3SM -RA BR SCT005 BKN012 OVC060 06/04 A3013 RMK AO2 SLP208 P0008 T00610044
KDUJ 241841Z AUTO 00000KT 4SM -RA BR FEW010 BKN050 OVC070 06/04 A3013 RMK AO2 P0007 T00610039
KDUJ 241819Z AUTO 05003KT 2 1/2SM -RA BR FEW008 BKN060 OVC075 06/04 A3013 RMK AO2 P0004 T00610039
KDUJ 241802Z AUTO 00000KT 3SM -RA BR FEW006 BKN040 OVC049 06/04 A3013 RMK AO2 P0001 T00610044
KDUJ 241753Z AUTO 20003KT 2 1/2SM -RA BR BKN040 BKN049 OVC070 06/04 A3014 RMK AO2 SLP210 P0011 60023 T00610044 10061 20056 55015
KDUJ 241711Z AUTO 13004KT 2SM -RA BR FEW004 BKN050 OVC065 06/04 A3013 RMK AO2 P0003 T00560044
KDUJ 241653Z AUTO 08005KT 1 3/4SM -RA BR SCT003 BKN050 OVC070 06/04 A3012 RMK AO2 SLP206 P0006 T00610044
KDUJ 241606Z AUTO 09004KT 2 1/2SM -RA BR FEW004 SCT045 OVC070 06/04 A3015 RMK AO2 P0002 T00610044
KDUJ 241553Z AUTO 13004KT 3SM -RA BR SCT041 SCT048 OVC065 06/04 A3016 RMK AO2 RAE19B39 SLP217 P0002 T00560044
KDUJ 241525Z AUTO 09005KT 4SM BR FEW004 OVC065 06/04 A3015 RMK AO2 RAE19 P0001 T00560039
KDUJ 241501Z AUTO 04003KT 3SM -RA BR OVC060 06/04 A3017 RMK AO2 P0001 T00560039
KDUJ 241453Z AUTO 00000KT 2 1/2SM -RA BR OVC060 06/04 A3018 RMK AO2 SLP225 P0004 60004 T00560039 51012
KDUJ 241353Z AUTO 02004KT 4SM -RA BR SCT013 OVC080 06/03 A3018 RMK AO2 RAB48 SLP223 P0000 T00560033
KDUJ 241253Z AUTO 27003KT 10SM OVC013 06/03 A3019 RMK AO2 PRESRR SLP228 T00610033
KDUJ 241224Z AUTO 01005KT 10SM OVC013 06/03 A3015 RMK AO2 T00610033
KDUJ 241153Z AUTO 01004KT 10SM OVC015 06/03 A3014 RMK AO2 SLP212 70043 T00610033 10100 20061 50001
KDUJ 241053Z AUTO 00000KT 10SM OVC012 07/04 A3015 RMK AO2 SLP218 T00670039
KDUJ 240953Z AUTO 31007KT 10SM OVC013 07/04 A3015 RMK AO2 SLP218 T00670039